sensor_id;sensor_type;location;lat;lon;timestamp;temperature;humidity
58469;DHT22;44257;44.804;10.220;2023-01-10T00:01:39;2.30;99.90
58469;DHT22;44257;44.804;10.220;2023-01-10T00:04:05;2.20;99.90
58469;DHT22;44257;44.804;10.220;2023-01-10T00:06:30;2.20;99.90
58469;DHT22;44257;44.804;10.220;2023-01-10T00:08:56;2.10;99.90
58469;DHT22;44257;44.804;10.220;2023-01-10T00:11:22;2.00;99.90
58469;DHT22;44257;44.804;10.220;2023-01-10T00:14:07;1.90;99.90
58469;DHT22;44257;44.804;10.220;2023-01-10T00:16:33;1.90;99.90
58469;DHT22;44257;44.804;10.220;2023-01-10T00:19:01;1.90;99.90
58469;DHT22;44257;44.804;10.220;2023-01-10T00:21:27;1.80;99.90
58469;DHT22;44257;44.804;10.220;2023-01-10T00:23:53;1.80;99.90
58469;DHT22;44257;44.804;10.220;2023-01-10T00:26:18;1.70;99.90
58469;DHT22;44257;44.804;10.220;2023-01-10T00:28:44;1.70;99.90
58469;DHT22;44257;44.804;10.220;2023-01-10T00:31:10;1.60;99.90
58469;DHT22;44257;44.804;10.220;2023-01-10T00:33:37;1.50;99.90
58469;DHT22;44257;44.804;10.220;2023-01-10T00:36:05;1.40;99.90
58469;DHT22;44257;44.804;10.220;2023-01-10T00:38:32;1.40;99.90
58469;DHT22;44257;44.804;10.220;2023-01-10T00:40:58;1.30;99.90
58469;DHT22;44257;44.804;10.220;2023-01-10T00:43:24;1.30;99.90
58469;DHT22;44257;44.804;10.220;2023-01-10T00:46:09;1.30;99.90
58469;DHT22;44257;44.804;10.220;2023-01-10T00:48:35;1.20;99.90
58469;DHT22;44257;44.804;10.220;2023-01-10T00:51:01;1.10;99.90
58469;DHT22;44257;44.804;10.220;2023-01-10T00:53:27;1.10;99.90
58469;DHT22;44257;44.804;10.220;2023-01-10T00:55:53;1.00;99.90
58469;DHT22;44257;44.804;10.220;2023-01-10T00:58:20;1.00;99.90
58469;DHT22;44257;44.804;10.220;2023-01-10T01:00:47;1.00;99.90
58469;DHT22;44257;44.804;10.220;2023-01-10T01:03:15;1.00;99.90
58469;DHT22;44257;44.804;10.220;2023-01-10T01:05:42;1.10;99.90
58469;DHT22;44257;44.804;10.220;2023-01-10T01:08:09;1.10;99.90
58469;DHT22;44257;44.804;10.220;2023-01-10T01:10:35;1.10;99.90
58469;DHT22;44257;44.804;10.220;2023-01-10T01:13:19;1.00;99.90
58469;DHT22;44257;44.804;10.220;2023-01-10T01:15:45;1.00;99.90
58469;DHT22;44257;44.804;10.220;2023-01-10T01:18:14;1.10;99.90
58469;DHT22;44257;44.804;10.220;2023-01-10T01:20:41;1.00;99.90
58469;DHT22;44257;44.804;10.220;2023-01-10T01:23:07;1.00;99.90
58469;DHT22;44257;44.804;10.220;2023-01-10T01:25:33;0.90;99.90
58469;DHT22;44257;44.804;10.220;2023-01-10T01:27:59;0.90;99.90
58469;DHT22;44257;44.804;10.220;2023-01-10T01:30:25;0.90;99.90
58469;DHT22;44257;44.804;10.220;2023-01-10T01:32:50;0.90;99.90
58469;DHT22;44257;44.804;10.220;2023-01-10T01:35:17;0.90;99.90
58469;DHT22;44257;44.804;10.220;2023-01-10T01:37:43;0.80;99.90
58469;DHT22;44257;44.804;10.220;2023-01-10T01:40:18;0.70;99.90
58469;DHT22;44257;44.804;10.220;2023-01-10T01:42:45;0.70;99.90
58469;DHT22;44257;44.804;10.220;2023-01-10T01:50:50;0.70;99.90
58469;DHT22;44257;44.804;10.220;2023-01-10T01:55:49;0.60;99.90
58469;DHT22;44257;44.804;10.220;2023-01-10T01:58:21;0.60;99.90
58469;DHT22;44257;44.804;10.220;2023-01-10T02:00:49;0.60;99.90
58469;DHT22;44257;44.804;10.220;2023-01-10T02:03:15;0.60;99.90
58469;DHT22;44257;44.804;10.220;2023-01-10T02:05:41;0.60;99.90
58469;DHT22;44257;44.804;10.220;2023-01-10T02:08:09;0.60;99.90
58469;DHT22;44257;44.804;10.220;2023-01-10T02:10:54;0.70;99.90
58469;DHT22;44257;44.804;10.220;2023-01-10T02:13:25;0.70;99.90
58469;DHT22;44257;44.804;10.220;2023-01-10T02:15:51;0.70;99.90
58469;DHT22;44257;44.804;10.220;2023-01-10T02:18:18;0.80;99.90
58469;DHT22;44257;44.804;10.220;2023-01-10T02:25:11;0.90;99.90
58469;DHT22;44257;44.804;10.220;2023-01-10T02:27:26;1.00;99.90
58469;DHT22;44257;44.804;10.220;2023-01-10T02:32:49;1.10;99.90
58469;DHT22;44257;44.804;10.220;2023-01-10T02:44:16;0.90;99.90
58469;DHT22;44257;44.804;10.220;2023-01-10T02:46:44;0.70;99.90
58469;DHT22;44257;44.804;10.220;2023-01-10T02:49:11;0.60;99.90
58469;DHT22;44257;44.804;10.220;2023-01-10T02:51:36;0.60;99.90
58469;DHT22;44257;44.804;10.220;2023-01-10T02:54:22;0.50;99.90
58469;DHT22;44257;44.804;10.220;2023-01-10T03:05:28;0.10;99.90
58469;DHT22;44257;44.804;10.220;2023-01-10T03:11:06;0.10;99.90
58469;DHT22;44257;44.804;10.220;2023-01-10T03:16:19;0.10;99.90
58469;DHT22;44257;44.804;10.220;2023-01-10T03:18:51;0.10;99.90
58469;DHT22;44257;44.804;10.220;2023-01-10T03:21:20;0.10;99.90
58469;DHT22;44257;44.804;10.220;2023-01-10T03:23:48;0.20;99.90
58469;DHT22;44257;44.804;10.220;2023-01-10T03:26:16;0.10;99.90
58469;DHT22;44257;44.804;10.220;2023-01-10T03:28:50;0.10;99.90
58469;DHT22;44257;44.804;10.220;2023-01-10T03:31:31;0.20;99.90
58469;DHT22;44257;44.804;10.220;2023-01-10T03:34:01;0.20;99.90
58469;DHT22;44257;44.804;10.220;2023-01-10T03:36:36;0.20;99.90
58469;DHT22;44257;44.804;10.220;2023-01-10T03:42:24;0.30;99.90
58469;DHT22;44257;44.804;10.220;2023-01-10T03:45:07;0.40;99.90
58469;DHT22;44257;44.804;10.220;2023-01-10T03:47:36;0.50;99.90
58469;DHT22;44257;44.804;10.220;2023-01-10T03:52:34;0.60;99.90
58469;DHT22;44257;44.804;10.220;2023-01-10T03:55:01;0.70;99.90
58469;DHT22;44257;44.804;10.220;2023-01-10T03:57:28;0.90;99.90
58469;DHT22;44257;44.804;10.220;2023-01-10T03:59:55;1.00;99.90
58469;DHT22;44257;44.804;10.220;2023-01-10T04:02:27;1.20;99.90
58469;DHT22;44257;44.804;10.220;2023-01-10T04:04:53;1.40;99.90
58469;DHT22;44257;44.804;10.220;2023-01-10T04:07:19;1.60;99.90
58469;DHT22;44257;44.804;10.220;2023-01-10T04:09:45;1.80;99.90
58469;DHT22;44257;44.804;10.220;2023-01-10T04:12:11;1.90;99.90
58469;DHT22;44257;44.804;10.220;2023-01-10T04:14:36;2.20;99.90
58469;DHT22;44257;44.804;10.220;2023-01-10T04:17:02;2.50;99.90
58469;DHT22;44257;44.804;10.220;2023-01-10T04:19:29;2.80;99.90
58469;DHT22;44257;44.804;10.220;2023-01-10T04:21:55;3.00;99.90
58469;DHT22;44257;44.804;10.220;2023-01-10T04:24:21;3.20;99.90
58469;DHT22;44257;44.804;10.220;2023-01-10T04:26:46;3.50;99.90
58469;DHT22;44257;44.804;10.220;2023-01-10T04:29:13;3.70;99.90
58469;DHT22;44257;44.804;10.220;2023-01-10T04:31:39;4.00;99.90
58469;DHT22;44257;44.804;10.220;2023-01-10T04:34:07;4.30;99.90
58469;DHT22;44257;44.804;10.220;2023-01-10T04:36:33;4.60;99.90
58469;DHT22;44257;44.804;10.220;2023-01-10T04:38:59;4.80;99.90
58469;DHT22;44257;44.804;10.220;2023-01-10T04:41:25;5.00;99.90
58469;DHT22;44257;44.804;10.220;2023-01-10T04:43:51;5.20;99.90
58469;DHT22;44257;44.804;10.220;2023-01-10T04:46:17;5.50;99.90
58469;DHT22;44257;44.804;10.220;2023-01-10T04:48:43;5.70;99.90
58469;DHT22;44257;44.804;10.220;2023-01-10T04:51:08;5.90;99.90
58469;DHT22;44257;44.804;10.220;2023-01-10T04:53:35;6.10;99.90
58469;DHT22;44257;44.804;10.220;2023-01-10T04:56:05;6.20;99.90
58469;DHT22;44257;44.804;10.220;2023-01-10T04:58:35;6.40;99.90
58469;DHT22;44257;44.804;10.220;2023-01-10T05:01:13;6.50;99.90
58469;DHT22;44257;44.804;10.220;2023-01-10T05:03:39;6.70;99.90
58469;DHT22;44257;44.804;10.220;2023-01-10T05:06:05;6.80;99.90
58469;DHT22;44257;44.804;10.220;2023-01-10T05:08:32;6.90;99.90
58469;DHT22;44257;44.804;10.220;2023-01-10T05:10:57;7.00;99.90
58469;DHT22;44257;44.804;10.220;2023-01-10T05:13:23;7.10;99.90
58469;DHT22;44257;44.804;10.220;2023-01-10T05:15:57;7.20;99.90
58469;DHT22;44257;44.804;10.220;2023-01-10T05:18:24;7.30;99.90
58469;DHT22;44257;44.804;10.220;2023-01-10T05:20:50;7.40;99.90
58469;DHT22;44257;44.804;10.220;2023-01-10T05:23:16;7.50;99.90
58469;DHT22;44257;44.804;10.220;2023-01-10T05:25:42;7.60;99.90
58469;DHT22;44257;44.804;10.220;2023-01-10T05:28:08;7.70;99.90
58469;DHT22;44257;44.804;10.220;2023-01-10T05:30:34;7.70;99.90
58469;DHT22;44257;44.804;10.220;2023-01-10T05:33:03;7.80;99.90
58469;DHT22;44257;44.804;10.220;2023-01-10T05:35:29;7.90;99.90
58469;DHT22;44257;44.804;10.220;2023-01-10T05:37:55;8.10;99.90
58469;DHT22;44257;44.804;10.220;2023-01-10T05:40:20;8.20;99.90
58469;DHT22;44257;44.804;10.220;2023-01-10T05:42:47;8.30;99.90
58469;DHT22;44257;44.804;10.220;2023-01-10T05:45:13;8.30;99.90
58469;DHT22;44257;44.804;10.220;2023-01-10T05:47:38;8.40;99.90
58469;DHT22;44257;44.804;10.220;2023-01-10T05:50:04;8.40;99.90
58469;DHT22;44257;44.804;10.220;2023-01-10T05:52:30;8.50;99.90
58469;DHT22;44257;44.804;10.220;2023-01-10T05:54:56;8.50;99.90
58469;DHT22;44257;44.804;10.220;2023-01-10T05:57:22;8.50;99.90
58469;DHT22;44257;44.804;10.220;2023-01-10T05:59:50;8.60;99.90
58469;DHT22;44257;44.804;10.220;2023-01-10T06:02:16;8.60;99.90
58469;DHT22;44257;44.804;10.220;2023-01-10T06:04:41;8.70;99.90
58469;DHT22;44257;44.804;10.220;2023-01-10T06:07:08;8.70;99.90
58469;DHT22;44257;44.804;10.220;2023-01-10T06:09:34;8.70;99.90
58469;DHT22;44257;44.804;10.220;2023-01-10T06:12:00;8.70;99.90
58469;DHT22;44257;44.804;10.220;2023-01-10T06:14:26;8.70;99.90
58469;DHT22;44257;44.804;10.220;2023-01-10T06:16:53;8.70;99.90
58469;DHT22;44257;44.804;10.220;2023-01-10T06:19:19;8.70;99.90
58469;DHT22;44257;44.804;10.220;2023-01-10T06:21:44;8.70;99.90
58469;DHT22;44257;44.804;10.220;2023-01-10T06:24:10;8.70;99.90
58469;DHT22;44257;44.804;10.220;2023-01-10T06:26:36;8.80;99.90
58469;DHT22;44257;44.804;10.220;2023-01-10T06:29:02;8.80;99.70
58469;DHT22;44257;44.804;10.220;2023-01-10T06:31:28;8.80;99.70
58469;DHT22;44257;44.804;10.220;2023-01-10T06:33:54;8.80;99.70
58469;DHT22;44257;44.804;10.220;2023-01-10T06:36:20;8.80;99.60
58469;DHT22;44257;44.804;10.220;2023-01-10T06:38:46;8.80;98.90
58469;DHT22;44257;44.804;10.220;2023-01-10T06:41:11;8.90;99.10
58469;DHT22;44257;44.804;10.220;2023-01-10T06:43:44;8.90;98.70
58469;DHT22;44257;44.804;10.220;2023-01-10T06:46:11;8.90;98.30
58469;DHT22;44257;44.804;10.220;2023-01-10T06:48:37;9.00;98.10
58469;DHT22;44257;44.804;10.220;2023-01-10T06:51:04;9.00;97.60
58469;DHT22;44257;44.804;10.220;2023-01-10T06:53:31;9.10;97.80
58469;DHT22;44257;44.804;10.220;2023-01-10T06:55:57;9.10;97.60
58469;DHT22;44257;44.804;10.220;2023-01-10T06:58:23;9.10;97.20
58469;DHT22;44257;44.804;10.220;2023-01-10T07:00:49;9.10;97.50
58469;DHT22;44257;44.804;10.220;2023-01-10T07:03:15;9.10;97.00
58469;DHT22;44257;44.804;10.220;2023-01-10T07:05:41;9.20;97.40
58469;DHT22;44257;44.804;10.220;2023-01-10T07:08:07;9.10;97.20
58469;DHT22;44257;44.804;10.220;2023-01-10T07:10:33;9.20;96.80
58469;DHT22;44257;44.804;10.220;2023-01-10T07:12:59;9.20;96.90
58469;DHT22;44257;44.804;10.220;2023-01-10T07:15:26;9.30;96.60
58469;DHT22;44257;44.804;10.220;2023-01-10T07:17:52;9.30;96.10
58469;DHT22;44257;44.804;10.220;2023-01-10T07:20:18;9.40;96.40
58469;DHT22;44257;44.804;10.220;2023-01-10T07:22:54;9.40;96.40
58469;DHT22;44257;44.804;10.220;2023-01-10T07:25:20;9.50;96.40
58469;DHT22;44257;44.804;10.220;2023-01-10T07:27:46;9.60;95.80
58469;DHT22;44257;44.804;10.220;2023-01-10T07:30:12;9.60;95.90
58469;DHT22;44257;44.804;10.220;2023-01-10T07:32:38;9.60;95.70
58469;DHT22;44257;44.804;10.220;2023-01-10T07:35:04;9.60;95.10
58469;DHT22;44257;44.804;10.220;2023-01-10T07:37:30;9.70;94.30
58469;DHT22;44257;44.804;10.220;2023-01-10T07:39:56;9.90;94.30
58469;DHT22;44257;44.804;10.220;2023-01-10T07:42:22;9.90;94.80
58469;DHT22;44257;44.804;10.220;2023-01-10T07:44:47;9.90;95.30
58469;DHT22;44257;44.804;10.220;2023-01-10T07:47:13;9.90;95.40
58469;DHT22;44257;44.804;10.220;2023-01-10T07:49:39;9.90;94.30
58469;DHT22;44257;44.804;10.220;2023-01-10T07:52:05;10.10;94.10
58469;DHT22;44257;44.804;10.220;2023-01-10T07:54:34;10.20;93.80
58469;DHT22;44257;44.804;10.220;2023-01-10T07:57:01;10.30;93.60
58469;DHT22;44257;44.804;10.220;2023-01-10T07:59:26;10.40;93.30
58469;DHT22;44257;44.804;10.220;2023-01-10T08:01:52;10.40;93.20
58469;DHT22;44257;44.804;10.220;2023-01-10T08:04:19;10.50;92.90
58469;DHT22;44257;44.804;10.220;2023-01-10T08:06:45;10.40;93.20
58469;DHT22;44257;44.804;10.220;2023-01-10T08:09:11;10.50;93.10
58469;DHT22;44257;44.804;10.220;2023-01-10T08:11:36;10.40;92.20
58469;DHT22;44257;44.804;10.220;2023-01-10T08:14:03;10.40;92.20
58469;DHT22;44257;44.804;10.220;2023-01-10T08:16:29;10.40;92.70
58469;DHT22;44257;44.804;10.220;2023-01-10T08:18:55;10.40;92.70
58469;DHT22;44257;44.804;10.220;2023-01-10T08:21:20;10.40;92.60
58469;DHT22;44257;44.804;10.220;2023-01-10T08:23:46;10.40;92.10
58469;DHT22;44257;44.804;10.220;2023-01-10T08:26:12;10.50;91.60
58469;DHT22;44257;44.804;10.220;2023-01-10T08:28:38;10.50;91.50
58469;DHT22;44257;44.804;10.220;2023-01-10T08:31:08;10.60;91.20
58469;DHT22;44257;44.804;10.220;2023-01-10T08:33:38;10.70;90.30
58469;DHT22;44257;44.804;10.220;2023-01-10T08:36:03;10.80;90.40
58469;DHT22;44257;44.804;10.220;2023-01-10T08:38:29;10.80;90.30
58469;DHT22;44257;44.804;10.220;2023-01-10T08:40:56;10.90;90.10
58469;DHT22;44257;44.804;10.220;2023-01-10T08:43:23;10.90;90.10
58469;DHT22;44257;44.804;10.220;2023-01-10T08:45:49;11.00;90.60
58469;DHT22;44257;44.804;10.220;2023-01-10T08:48:15;10.90;90.20
58469;DHT22;44257;44.804;10.220;2023-01-10T08:50:41;11.00;89.40
58469;DHT22;44257;44.804;10.220;2023-01-10T08:53:06;11.00;89.10
58469;DHT22;44257;44.804;10.220;2023-01-10T08:55:32;11.10;89.40
58469;DHT22;44257;44.804;10.220;2023-01-10T08:58:00;11.10;90.30
58469;DHT22;44257;44.804;10.220;2023-01-10T09:00:27;11.10;90.70
58469;DHT22;44257;44.804;10.220;2023-01-10T09:02:53;11.20;88.60
58469;DHT22;44257;44.804;10.220;2023-01-10T09:05:19;11.30;87.70
58469;DHT22;44257;44.804;10.220;2023-01-10T09:07:46;11.30;87.60
58469;DHT22;44257;44.804;10.220;2023-01-10T09:10:12;11.40;87.70
58469;DHT22;44257;44.804;10.220;2023-01-10T09:12:39;11.40;87.60
58469;DHT22;44257;44.804;10.220;2023-01-10T09:15:26;11.50;87.00
58469;DHT22;44257;44.804;10.220;2023-01-10T09:17:56;11.50;86.60
58469;DHT22;44257;44.804;10.220;2023-01-10T09:20:24;11.50;86.30
58469;DHT22;44257;44.804;10.220;2023-01-10T09:22:50;11.60;83.90
58469;DHT22;44257;44.804;10.220;2023-01-10T09:25:16;11.60;85.60
58469;DHT22;44257;44.804;10.220;2023-01-10T09:27:42;11.60;84.60
58469;DHT22;44257;44.804;10.220;2023-01-10T09:30:08;11.60;80.50
58469;DHT22;44257;44.804;10.220;2023-01-10T09:32:35;11.70;79.50
58469;DHT22;44257;44.804;10.220;2023-01-10T09:35:01;11.80;79.60
58469;DHT22;44257;44.804;10.220;2023-01-10T09:37:27;11.90;81.30
58469;DHT22;44257;44.804;10.220;2023-01-10T09:39:53;11.90;83.90
58469;DHT22;44257;44.804;10.220;2023-01-10T09:47:52;11.90;83.40
58469;DHT22;44257;44.804;10.220;2023-01-10T09:50:33;11.90;82.20
58469;DHT22;44257;44.804;10.220;2023-01-10T09:53:20;11.90;80.70
58469;DHT22;44257;44.804;10.220;2023-01-10T09:56:06;12.00;81.50
58469;DHT22;44257;44.804;10.220;2023-01-10T09:58:34;12.00;83.30
58469;DHT22;44257;44.804;10.220;2023-01-10T10:01:05;12.00;81.10
58469;DHT22;44257;44.804;10.220;2023-01-10T10:06:12;12.10;80.80
58469;DHT22;44257;44.804;10.220;2023-01-10T10:08:43;12.20;82.90
58469;DHT22;44257;44.804;10.220;2023-01-10T10:22:21;12.40;78.80
58469;DHT22;44257;44.804;10.220;2023-01-10T10:28:05;12.40;78.20
58469;DHT22;44257;44.804;10.220;2023-01-10T10:33:45;12.50;79.40
58469;DHT22;44257;44.804;10.220;2023-01-10T10:36:45;12.50;79.50
58469;DHT22;44257;44.804;10.220;2023-01-10T10:39:17;12.60;80.40
58469;DHT22;44257;44.804;10.220;2023-01-10T10:41:47;12.60;79.60
58469;DHT22;44257;44.804;10.220;2023-01-10T10:46:58;12.70;77.10
58469;DHT22;44257;44.804;10.220;2023-01-10T10:50:10;12.70;78.00
58469;DHT22;44257;44.804;10.220;2023-01-10T10:52:42;12.80;78.50
58469;DHT22;44257;44.804;10.220;2023-01-10T10:55:24;12.80;79.20
58469;DHT22;44257;44.804;10.220;2023-01-10T10:57:52;12.90;77.60
58469;DHT22;44257;44.804;10.220;2023-01-10T11:00:19;12.90;74.70
58469;DHT22;44257;44.804;10.220;2023-01-10T11:03:00;12.90;76.10
58469;DHT22;44257;44.804;10.220;2023-01-10T11:05:35;12.90;75.50
58469;DHT22;44257;44.804;10.220;2023-01-10T11:08:05;13.00;75.50
58469;DHT22;44257;44.804;10.220;2023-01-10T11:10:36;13.00;74.80
58469;DHT22;44257;44.804;10.220;2023-01-10T11:16:00;13.10;75.50
58469;DHT22;44257;44.804;10.220;2023-01-10T11:18:28;13.10;73.60
58469;DHT22;44257;44.804;10.220;2023-01-10T11:21:13;13.20;73.60
58469;DHT22;44257;44.804;10.220;2023-01-10T11:26:27;13.20;75.30
58469;DHT22;44257;44.804;10.220;2023-01-10T11:31:52;13.30;73.90
58469;DHT22;44257;44.804;10.220;2023-01-10T11:34:29;13.30;73.10
58469;DHT22;44257;44.804;10.220;2023-01-10T11:37:00;13.40;73.00
58469;DHT22;44257;44.804;10.220;2023-01-10T11:39:27;13.30;73.40
58469;DHT22;44257;44.804;10.220;2023-01-10T11:41:53;13.40;75.10
58469;DHT22;44257;44.804;10.220;2023-01-10T11:44:28;13.50;74.90
58469;DHT22;44257;44.804;10.220;2023-01-10T11:47:02;13.50;75.60
58469;DHT22;44257;44.804;10.220;2023-01-10T11:49:37;13.60;72.50
58469;DHT22;44257;44.804;10.220;2023-01-10T11:52:18;13.60;72.70
58469;DHT22;44257;44.804;10.220;2023-01-10T11:54:45;13.60;72.60
58469;DHT22;44257;44.804;10.220;2023-01-10T11:57:23;13.70;70.60
58469;DHT22;44257;44.804;10.220;2023-01-10T11:59:56;13.60;72.80
58469;DHT22;44257;44.804;10.220;2023-01-10T12:02:29;13.70;71.80
58469;DHT22;44257;44.804;10.220;2023-01-10T12:04:59;13.70;71.90
58469;DHT22;44257;44.804;10.220;2023-01-10T12:07:26;13.70;71.80
58469;DHT22;44257;44.804;10.220;2023-01-10T12:10:00;13.70;71.30
58469;DHT22;44257;44.804;10.220;2023-01-10T12:12:34;13.70;70.70
58469;DHT22;44257;44.804;10.220;2023-01-10T12:15:23;13.80;71.20
58469;DHT22;44257;44.804;10.220;2023-01-10T12:17:52;13.80;70.60
58469;DHT22;44257;44.804;10.220;2023-01-10T12:20:21;13.80;70.50
58469;DHT22;44257;44.804;10.220;2023-01-10T12:23:10;13.80;71.30
58469;DHT22;44257;44.804;10.220;2023-01-10T12:25:40;13.90;69.70
58469;DHT22;44257;44.804;10.220;2023-01-10T12:28:25;13.90;70.50
58469;DHT22;44257;44.804;10.220;2023-01-10T12:30:52;13.90;70.90
58469;DHT22;44257;44.804;10.220;2023-01-10T12:33:26;13.90;69.80
58469;DHT22;44257;44.804;10.220;2023-01-10T12:38:39;14.00;72.70
58469;DHT22;44257;44.804;10.220;2023-01-10T12:44:42;14.10;73.00
58469;DHT22;44257;44.804;10.220;2023-01-10T12:47:31;14.10;74.10
58469;DHT22;44257;44.804;10.220;2023-01-10T12:50:22;14.20;71.10
58469;DHT22;44257;44.804;10.220;2023-01-10T12:55:30;14.20;70.60
58469;DHT22;44257;44.804;10.220;2023-01-10T12:58:01;14.20;69.60
58469;DHT22;44257;44.804;10.220;2023-01-10T13:00:41;14.20;68.80
58469;DHT22;44257;44.804;10.220;2023-01-10T13:03:18;14.20;70.00
58469;DHT22;44257;44.804;10.220;2023-01-10T13:05:44;14.30;71.20
58469;DHT22;44257;44.804;10.220;2023-01-10T13:08:16;14.30;69.10
58469;DHT22;44257;44.804;10.220;2023-01-10T13:10:47;14.30;69.30
58469;DHT22;44257;44.804;10.220;2023-01-10T13:18:36;14.30;69.00
58469;DHT22;44257;44.804;10.220;2023-01-10T13:21:06;14.40;67.60
58469;DHT22;44257;44.804;10.220;2023-01-10T13:23:38;14.40;68.40
58469;DHT22;44257;44.804;10.220;2023-01-10T13:26:06;14.40;68.10
58469;DHT22;44257;44.804;10.220;2023-01-10T13:28:38;14.30;68.50
58469;DHT22;44257;44.804;10.220;2023-01-10T13:31:22;14.40;70.40
58469;DHT22;44257;44.804;10.220;2023-01-10T13:33:55;14.40;68.30
58469;DHT22;44257;44.804;10.220;2023-01-10T13:36:29;14.50;66.90
58469;DHT22;44257;44.804;10.220;2023-01-10T13:39:00;14.40;68.20
58469;DHT22;44257;44.804;10.220;2023-01-10T14:03:52;14.40;68.30
58469;DHT22;44257;44.804;10.220;2023-01-10T14:14:36;14.30;69.50
58469;DHT22;44257;44.804;10.220;2023-01-10T14:22:36;14.30;69.70
58469;DHT22;44257;44.804;10.220;2023-01-10T14:25:18;14.20;69.70
58469;DHT22;44257;44.804;10.220;2023-01-10T14:27:48;14.20;70.00
58469;DHT22;44257;44.804;10.220;2023-01-10T14:30:26;14.20;69.70
58469;DHT22;44257;44.804;10.220;2023-01-10T14:32:56;14.20;69.30
58469;DHT22;44257;44.804;10.220;2023-01-10T14:35:32;14.10;70.20
58469;DHT22;44257;44.804;10.220;2023-01-10T14:38:00;14.10;70.00
58469;DHT22;44257;44.804;10.220;2023-01-10T14:40:43;14.00;70.80
58469;DHT22;44257;44.804;10.220;2023-01-10T14:43:19;13.90;69.30
58469;DHT22;44257;44.804;10.220;2023-01-10T14:46:02;13.80;70.70
58469;DHT22;44257;44.804;10.220;2023-01-10T14:48:40;13.70;71.00
58469;DHT22;44257;44.804;10.220;2023-01-10T14:53:32;13.50;70.70
58469;DHT22;44257;44.804;10.220;2023-01-10T14:55:57;13.50;70.80
58469;DHT22;44257;44.804;10.220;2023-01-10T14:58:24;13.40;71.80
58469;DHT22;44257;44.804;10.220;2023-01-10T15:00:52;13.30;71.20
58469;DHT22;44257;44.804;10.220;2023-01-10T15:03:20;13.30;71.60
58469;DHT22;44257;44.804;10.220;2023-01-10T15:05:51;13.20;71.20
58469;DHT22;44257;44.804;10.220;2023-01-10T15:08:28;13.20;73.30
58469;DHT22;44257;44.804;10.220;2023-01-10T15:11:02;13.10;72.70
58469;DHT22;44257;44.804;10.220;2023-01-10T15:13:37;13.00;73.80
58469;DHT22;44257;44.804;10.220;2023-01-10T15:16:06;12.80;73.80
58469;DHT22;44257;44.804;10.220;2023-01-10T15:18:43;12.70;76.20
58469;DHT22;44257;44.804;10.220;2023-01-10T15:21:11;12.60;76.20
58469;DHT22;44257;44.804;10.220;2023-01-10T15:23:42;12.40;76.20
58469;DHT22;44257;44.804;10.220;2023-01-10T15:26:15;12.30;76.80
58469;DHT22;44257;44.804;10.220;2023-01-10T15:28:44;12.10;79.40
58469;DHT22;44257;44.804;10.220;2023-01-10T15:31:16;12.00;79.70
58469;DHT22;44257;44.804;10.220;2023-01-10T15:33:44;11.80;79.40
58469;DHT22;44257;44.804;10.220;2023-01-10T15:36:16;11.60;80.60
58469;DHT22;44257;44.804;10.220;2023-01-10T15:38:45;11.50;81.90
58469;DHT22;44257;44.804;10.220;2023-01-10T15:41:17;11.30;83.80
58469;DHT22;44257;44.804;10.220;2023-01-10T15:43:44;11.20;84.30
58469;DHT22;44257;44.804;10.220;2023-01-10T15:46:21;11.00;84.70
58469;DHT22;44257;44.804;10.220;2023-01-10T15:48:58;10.90;84.70
58469;DHT22;44257;44.804;10.220;2023-01-10T15:51:34;10.70;85.90
58469;DHT22;44257;44.804;10.220;2023-01-10T15:54:04;10.60;85.40
58469;DHT22;44257;44.804;10.220;2023-01-10T15:56:38;10.40;84.40
58469;DHT22;44257;44.804;10.220;2023-01-10T15:59:26;10.20;84.10
58469;DHT22;44257;44.804;10.220;2023-01-10T16:04:25;9.90;85.80
58469;DHT22;44257;44.804;10.220;2023-01-10T16:06:53;9.70;85.30
58469;DHT22;44257;44.804;10.220;2023-01-10T16:09:29;9.60;85.40
58469;DHT22;44257;44.804;10.220;2023-01-10T16:11:56;9.50;86.80
58469;DHT22;44257;44.804;10.220;2023-01-10T16:14:40;9.40;87.60
58469;DHT22;44257;44.804;10.220;2023-01-10T16:17:06;9.30;88.50
58469;DHT22;44257;44.804;10.220;2023-01-10T16:19:31;9.20;89.60
58469;DHT22;44257;44.804;10.220;2023-01-10T16:21:59;9.10;90.30
58469;DHT22;44257;44.804;10.220;2023-01-10T16:24:30;9.00;90.70
58469;DHT22;44257;44.804;10.220;2023-01-10T16:26:58;8.90;91.90
58469;DHT22;44257;44.804;10.220;2023-01-10T16:29:27;8.80;91.50
58469;DHT22;44257;44.804;10.220;2023-01-10T16:31:53;8.70;91.40
58469;DHT22;44257;44.804;10.220;2023-01-10T16:34:20;8.60;91.50
58469;DHT22;44257;44.804;10.220;2023-01-10T16:36:46;8.50;91.60
58469;DHT22;44257;44.804;10.220;2023-01-10T16:39:20;8.50;91.10
58469;DHT22;44257;44.804;10.220;2023-01-10T16:41:46;8.40;91.30
58469;DHT22;44257;44.804;10.220;2023-01-10T16:44:32;8.30;91.40
58469;DHT22;44257;44.804;10.220;2023-01-10T16:46:59;8.20;91.10
58469;DHT22;44257;44.804;10.220;2023-01-10T16:49:25;8.10;91.30
58469;DHT22;44257;44.804;10.220;2023-01-10T16:51:51;8.00;92.20
58469;DHT22;44257;44.804;10.220;2023-01-10T16:54:21;7.90;92.90
58469;DHT22;44257;44.804;10.220;2023-01-10T16:56:47;7.90;92.70
58469;DHT22;44257;44.804;10.220;2023-01-10T16:59:15;7.80;92.20
58469;DHT22;44257;44.804;10.220;2023-01-10T17:01:57;7.70;92.20
58469;DHT22;44257;44.804;10.220;2023-01-10T17:04:24;7.60;92.60
58469;DHT22;44257;44.804;10.220;2023-01-10T17:06:52;7.50;92.20
58469;DHT22;44257;44.804;10.220;2023-01-10T17:09:27;7.50;92.00
58469;DHT22;44257;44.804;10.220;2023-01-10T17:12:00;7.50;92.20
58469;DHT22;44257;44.804;10.220;2023-01-10T17:14:34;7.60;91.90
58469;DHT22;44257;44.804;10.220;2023-01-10T17:17:01;7.70;92.00
58469;DHT22;44257;44.804;10.220;2023-01-10T17:19:26;7.60;92.40
58469;DHT22;44257;44.804;10.220;2023-01-10T17:21:52;7.60;92.80
58469;DHT22;44257;44.804;10.220;2023-01-10T17:24:18;7.50;93.50
58469;DHT22;44257;44.804;10.220;2023-01-10T17:26:44;7.40;93.60
58469;DHT22;44257;44.804;10.220;2023-01-10T17:29:10;7.30;93.40
58469;DHT22;44257;44.804;10.220;2023-01-10T17:31:36;7.20;93.90
58469;DHT22;44257;44.804;10.220;2023-01-10T17:34:01;7.20;94.00
58469;DHT22;44257;44.804;10.220;2023-01-10T17:36:27;7.10;94.00
58469;DHT22;44257;44.804;10.220;2023-01-10T17:38:55;7.20;94.30
58469;DHT22;44257;44.804;10.220;2023-01-10T17:41:21;7.30;94.20
58469;DHT22;44257;44.804;10.220;2023-01-10T17:43:47;7.40;93.90
58469;DHT22;44257;44.804;10.220;2023-01-10T17:46:14;7.50;93.70
58469;DHT22;44257;44.804;10.220;2023-01-10T17:48:42;7.60;93.40
58469;DHT22;44257;44.804;10.220;2023-01-10T17:51:08;7.70;93.20
58469;DHT22;44257;44.804;10.220;2023-01-10T17:53:36;7.80;93.20
58469;DHT22;44257;44.804;10.220;2023-01-10T17:56:04;7.80;92.70